Time;durP1;ratioP1;P1;durP2;ratioP2;P2;SDS_P1;SDS_P2;PMS_P1;PMS_P2;Temp;Humidity;BMP_temperature;BMP_pressure;BME280_temperature;BME280_humidity;BME280_pressure;Samples;Min_cycle;Max_cycle;Signal;HPM_P1;HPM_P2
2021/11/05 00:00:57;;;;;;;19.02;11.88;;;;;;;5.03;100.00;61512.50;5089616;28;20055;-73
2021/11/05 00:03:25;;;;;;;20.77;11.50;;;;;;;5.03;100.00;61512.31;5078715;28;20054;-73
2021/11/05 00:05:52;;;;;;;19.30;11.23;;;;;;;5.04;100.00;61513.00;5079317;28;20162;-72
2021/11/05 00:08:23;;;;;;;16.67;10.73;;;;;;;5.04;100.00;61512.56;5057590;28;20057;-72
2021/11/05 00:10:50;;;;;;;18.10;11.80;;;;;;;5.04;100.00;61512.72;5098645;28;20071;-72
2021/11/05 00:13:18;;;;;;;18.98;12.48;;;;;;;5.04;100.00;61513.03;5097160;28;20087;-72
2021/11/05 00:15:46;;;;;;;16.58;11.07;;;;;;;5.04;100.00;61513.53;5077612;28;20119;-72
2021/11/05 00:18:13;;;;;;;23.30;13.35;;;;;;;5.05;100.00;61513.84;5099717;28;20083;-71
2021/11/05 00:20:40;;;;;;;16.35;12.07;;;;;;;5.05;100.00;61513.84;5102369;28;20576;-72
2021/11/05 00:23:10;;;;;;;22.52;14.88;;;;;;;5.04;100.00;61512.75;5097736;28;20179;-72
2021/11/05 00:25:37;;;;;;;24.25;16.08;;;;;;;5.03;100.00;61512.06;5099459;28;20058;-72
2021/11/05 00:28:05;;;;;;;21.58;12.48;;;;;;;5.03;100.00;61512.22;5086608;28;20071;-72
2021/11/05 00:30:32;;;;;;;26.05;15.82;;;;;;;5.03;100.00;61511.63;5095429;28;20123;-72
2021/11/05 00:32:59;;;;;;;26.05;13.75;;;;;;;5.03;100.00;61511.91;5099764;28;20040;-72
2021/11/05 00:35:27;;;;;;;21.55;13.38;;;;;;;5.03;100.00;61511.84;5080704;28;20040;-72
2021/11/05 00:37:54;;;;;;;18.52;11.63;;;;;;;5.03;100.00;61512.16;5099077;28;20047;-73
2021/11/05 00:40:25;;;;;;;20.98;13.68;;;;;;;5.04;100.00;61513.31;5062930;28;20479;-72
2021/11/05 00:42:52;;;;;;;18.42;11.88;;;;;;;5.04;100.00;61513.16;5083328;28;20044;-72
2021/11/05 00:45:20;;;;;;;27.58;16.73;;;;;;;5.05;100.00;61513.25;5095756;28;20131;-71
2021/11/05 00:47:47;;;;;;;18.52;12.48;;;;;;;5.05;100.00;61513.53;5096595;28;20127;-72
2021/11/05 00:50:14;;;;;;;23.95;14.95;;;;;;;5.06;100.00;61514.63;5096153;28;20518;-72
2021/11/05 00:52:42;;;;;;;16.42;11.60;;;;;;;5.06;100.00;61515.34;5098672;28;21423;-71
2021/11/05 00:55:09;;;;;;;22.25;14.18;;;;;;;5.06;100.00;61515.50;5095708;28;20127;-72
2021/11/05 00:57:37;;;;;;;25.27;14.90;;;;;;;5.07;100.00;61516.03;5077481;28;20123;-72
2021/11/05 01:00:08;;;;;;;22.15;15.23;;;;;;;5.06;100.00;61515.66;5100536;28;20122;-71
2021/11/05 01:02:35;;;;;;;31.85;17.85;;;;;;;5.06;100.00;61515.22;5060434;28;20127;-72
2021/11/05 01:05:03;;;;;;;24.35;15.82;;;;;;;5.06;100.00;61514.78;5096400;28;20079;-72
2021/11/05 01:07:31;;;;;;;27.00;16.58;;;;;;;5.06;100.00;61514.66;5096452;28;20069;-72
2021/11/05 01:09:58;;;;;;;23.13;15.05;;;;;;;5.06;100.00;61515.38;5087676;28;20078;-72
2021/11/05 01:12:26;;;;;;;25.92;15.73;;;;;;;5.07;100.00;61515.75;5053404;28;20501;-72
2021/11/05 01:14:53;;;;;;;21.20;14.30;;;;;;;5.07;100.00;61515.75;5073746;28;20080;-72
2021/11/05 01:17:20;;;;;;;25.63;15.90;;;;;;;5.06;100.00;61515.38;5077309;28;20127;-72
2021/11/05 01:19:48;;;;;;;24.23;16.05;;;;;;;5.06;100.00;61515.09;5097255;28;20083;-72
2021/11/05 01:22:15;;;;;;;24.05;16.05;;;;;;;5.06;100.00;61514.81;5096213;28;20516;-73
2021/11/05 01:24:43;;;;;;;20.17;12.52;;;;;;;5.06;100.00;61515.66;5089184;28;20458;-72
2021/11/05 01:27:10;;;;;;;25.88;14.13;;;;;;;5.07;100.00;61516.09;5086156;28;20079;-72
2021/11/05 01:29:37;;;;;;;19.15;13.07;;;;;;;5.08;100.00;61516.84;5092401;28;20132;-72
2021/11/05 01:32:05;;;;;;;22.70;14.80;;;;;;;5.08;100.00;61517.06;5075992;28;20079;-71
2021/11/05 01:34:33;;;;;;;21.13;13.77;;;;;;;5.09;100.00;61518.09;5092640;28;20090;-72
2021/11/05 01:37:00;;;;;;;15.57;10.68;;;;;;;5.09;100.00;61518.31;5093462;28;20043;-72
2021/11/05 01:39:27;;;;;;;20.98;13.60;;;;;;;5.10;100.00;61519.13;5094434;28;20173;-72
2021/11/05 01:41:56;;;;;;;28.83;14.57;;;;;;;5.10;100.00;61520.00;5090681;28;20040;-72
2021/11/05 01:44:25;;;;;;;21.50;14.32;;;;;;;5.11;100.00;61520.97;5057661;28;20080;-71
2021/11/05 01:46:53;;;;;;;24.33;16.08;;;;;;;5.11;100.00;61520.81;5072388;28;20442;-72
2021/11/05 01:49:20;;;;;;;21.27;13.30;;;;;;;5.12;100.00;61521.19;5067427;28;20105;-72
2021/11/05 01:51:48;;;;;;;20.25;13.27;;;;;;;5.13;100.00;61522.44;5098723;28;20489;-71
2021/11/05 01:54:15;;;;;;;21.20;14.02;;;;;;;5.13;100.00;61522.69;5066415;28;20431;-72
2021/11/05 01:56:43;;;;;;;26.42;16.42;;;;;;;5.14;100.00;61523.34;5097448;28;20532;-72
2021/11/05 01:59:48;;;;;;;22.77;13.55;;;;;;;5.14;100.00;61523.75;5076718;28;20071;-72
2021/11/05 02:02:15;;;;;;;25.02;15.18;;;;;;;5.14;100.00;61523.59;5060204;28;20159;-72
2021/11/05 02:04:43;;;;;;;27.17;16.02;;;;;;;5.14;100.00;61523.88;5093143;28;20127;-73
2021/11/05 02:07:11;;;;;;;29.20;16.55;;;;;;;5.15;100.00;61523.66;5094314;28;20082;-72
2021/11/05 02:09:39;;;;;;;27.80;14.85;;;;;;;5.14;100.00;61523.41;5106152;28;20051;-72
2021/11/05 02:12:07;;;;;;;35.38;19.63;;;;;;;5.15;100.00;61523.94;5094713;28;20064;-72
2021/11/05 02:14:35;;;;;;;27.27;16.83;;;;;;;5.16;100.00;61525.03;5080981;28;20083;-72
2021/11/05 02:17:04;;;;;;;25.60;15.60;;;;;;;5.17;100.00;61525.94;5070457;28;20127;-72
2021/11/05 02:19:33;;;;;;;23.58;15.88;;;;;;;5.19;100.00;61527.59;5100116;28;20047;-71
2021/11/05 02:22:01;;;;;;;26.42;16.40;;;;;;;5.20;100.00;61528.66;5058128;28;20049;-72
2021/11/05 02:24:29;;;;;;;34.55;20.02;;;;;;;5.20;100.00;61528.94;5105829;28;20541;-72
2021/11/05 02:26:58;;;;;;;34.65;19.38;;;;;;;5.20;100.00;61529.34;5090571;28;20127;-72
2021/11/05 02:29:30;;;;;;;32.15;19.13;;;;;;;5.21;100.00;61529.88;5076802;28;20104;-71
2021/11/05 02:31:58;;;;;;;27.27;16.15;;;;;;;5.21;100.00;61530.41;5072454;28;20429;-72
2021/11/05 02:34:25;;;;;;;33.17;20.63;;;;;;;5.21;100.00;61530.00;5070125;28;20075;-72
2021/11/05 02:36:53;;;;;;;32.40;19.00;;;;;;;5.21;100.00;61530.25;5098969;28;20158;-72
2021/11/05 02:39:22;;;;;;;28.83;18.63;;;;;;;5.21;100.00;61530.41;5080953;28;20108;-72
2021/11/05 02:41:51;;;;;;;24.67;16.13;;;;;;;5.22;100.00;61531.53;5098351;28;20051;-72
2021/11/05 02:44:19;;;;;;;30.50;18.75;;;;;;;5.24;100.00;61533.28;5093582;28;20159;-72
2021/11/05 02:46:47;;;;;;;24.67;16.42;;;;;;;5.26;100.00;61535.31;5081454;28;20079;-72
2021/11/05 02:49:16;;;;;;;34.00;19.83;;;;;;;5.26;100.00;61535.91;5073255;28;20476;-72
2021/11/05 02:51:46;;;;;;;37.33;20.15;;;;;;;5.27;100.00;61536.50;5095242;28;20093;-72
2021/11/05 02:54:13;;;;;;;22.88;14.93;;;;;;;5.27;100.00;61537.66;5066603;28;20470;-72
2021/11/05 02:56:41;;;;;;;25.65;17.02;;;;;;;5.28;100.00;61538.34;5094168;28;20048;-72
2021/11/05 02:59:09;;;;;;;39.88;19.42;;;;;;;5.28;100.00;61539.19;5066464;28;20115;-72
2021/11/05 03:01:37;;;;;;;23.80;15.65;;;;;;;5.29;100.00;61540.31;5090002;28;20123;-72
2021/11/05 03:04:06;;;;;;;24.45;15.55;;;;;;;5.31;100.00;61541.34;5089255;28;20091;-72
2021/11/05 03:06:39;;;;;;;25.55;16.08;;;;;;;5.31;100.00;61542.00;5094561;28;20131;-72
2021/11/05 03:09:12;;;;;;;34.50;18.80;;;;;;;5.33;100.00;61543.19;5072624;28;20143;-72
2021/11/05 03:11:41;;;;;;;27.67;17.45;;;;;;;5.33;100.00;61543.56;5094683;28;20044;-72
2021/11/05 03:14:08;;;;;;;34.08;20.13;;;;;;;5.34;100.00;61544.25;5070453;28;20083;-72
2021/11/05 03:16:38;;;;;;;36.40;19.30;;;;;;;5.35;100.00;61545.00;5088259;28;20105;-73
2021/11/05 03:19:07;;;;;;;27.85;18.20;;;;;;;5.36;100.00;61545.81;5081668;28;20079;-72
2021/11/05 03:21:35;;;;;;;32.20;19.23;;;;;;;5.36;100.00;61546.06;5086861;28;20143;-72
2021/11/05 03:24:03;;;;;;;29.50;17.52;;;;;;;5.38;100.00;61547.56;5056680;28;20131;-72
2021/11/05 03:26:30;;;;;;;31.45;18.50;;;;;;;5.39;100.00;61548.78;5083617;28;20076;-73
2021/11/05 03:28:58;;;;;;;27.80;16.13;;;;;;;5.40;100.00;61550.22;5083430;28;20052;-73
2021/11/05 03:31:25;;;;;;;31.70;18.60;;;;;;;5.41;100.00;61551.34;5092059;28;20079;-72
2021/11/05 03:33:53;;;;;;;24.17;15.43;;;;;;;5.43;100.00;61553.09;5088910;28;20498;-73
2021/11/05 03:36:20;;;;;;;30.48;17.35;;;;;;;5.43;100.00;61553.19;5057764;28;20528;-72
2021/11/05 03:38:48;;;;;;;30.42;18.65;;;;;;;5.43;100.00;61552.94;5093545;28;20071;-72
2021/11/05 03:41:17;;;;;;;27.08;17.02;;;;;;;5.43;100.00;61553.19;5090767;28;20040;-72
2021/11/05 03:43:45;;;;;;;29.17;17.60;;;;;;;5.43;100.00;61552.75;5073104;28;20405;-72
2021/11/05 03:46:13;;;;;;;30.77;17.98;;;;;;;5.43;100.00;61553.03;5085002;28;20215;-72
2021/11/05 03:48:40;;;;;;;28.90;18.35;;;;;;;5.44;100.00;61553.31;5075341;28;20089;-72
2021/11/05 03:51:08;;;;;;;25.85;16.90;;;;;;;5.44;100.00;61553.56;5087169;28;20054;-72
2021/11/05 03:53:37;;;;;;;25.98;18.30;;;;;;;5.44;100.00;61553.91;5074465;28;20402;-72
2021/11/05 03:56:05;;;;;;;33.42;18.92;;;;;;;5.44;100.00;61554.00;5087831;28;20134;-72
2021/11/05 03:58:32;;;;;;;27.80;17.85;;;;;;;5.45;100.00;61554.69;5097075;28;20075;-72
2021/11/05 04:01:00;;;;;;;24.10;15.70;;;;;;;5.46;100.00;61555.66;5094650;28;20071;-72
2021/11/05 04:03:27;;;;;;;26.20;16.98;;;;;;;5.45;100.00;61555.53;5097996;28;20048;-72
2021/11/05 04:05:54;;;;;;;32.13;21.08;;;;;;;5.45;100.00;61555.09;5070687;28;20083;-72
2021/11/05 04:08:22;;;;;;;29.80;19.40;;;;;;;5.46;100.00;61555.66;5086521;28;20586;-72
2021/11/05 04:10:50;;;;;;;25.50;18.15;;;;;;;5.46;100.00;61556.19;5084393;28;20151;-72
2021/11/05 04:13:17;;;;;;;33.70;21.13;;;;;;;5.46;100.00;61555.81;5092834;28;20052;-73
2021/11/05 04:15:44;;;;;;;26.33;17.40;;;;;;;5.46;100.00;61556.19;5084291;28;20083;-72
2021/11/05 04:18:12;;;;;;;24.10;16.88;;;;;;;5.47;100.00;61556.84;5089205;28;20075;-72
2021/11/05 04:20:40;;;;;;;22.77;15.45;;;;;;;5.47;100.00;61557.25;5088443;28;20456;-73
2021/11/05 04:23:09;;;;;;;25.80;17.40;;;;;;;5.47;100.00;61556.84;5053022;28;20048;-73
2021/11/05 04:25:37;;;;;;;25.60;17.23;;;;;;;5.48;100.00;61557.97;5094006;28;20504;-72
2021/11/05 04:28:06;;;;;;;21.95;14.95;;;;;;;5.49;100.00;61559.28;5074664;28;20040;-72
2021/11/05 04:30:34;;;;;;;24.92;17.17;;;;;;;5.50;100.00;61560.38;5088621;28;20119;-72
2021/11/05 04:33:01;;;;;;;27.13;18.58;;;;;;;5.51;100.00;61561.50;5091589;28;20079;-72
2021/11/05 04:35:29;;;;;;;30.27;20.10;;;;;;;5.52;100.00;61562.19;5092812;28;20506;-72
2021/11/05 04:37:56;;;;;;;32.67;19.77;;;;;;;5.52;100.00;61562.03;5068915;28;20090;-72
2021/11/05 04:40:23;;;;;;;30.67;19.05;;;;;;;5.52;100.00;61561.88;5092645;28;20079;-72
2021/11/05 04:42:51;;;;;;;29.58;17.73;;;;;;;5.51;100.00;61561.47;5089240;28;20083;-72
2021/11/05 04:45:18;;;;;;;28.00;18.33;;;;;;;5.52;100.00;61562.63;5088223;28;20052;-73
2021/11/05 04:47:45;;;;;;;32.65;20.45;;;;;;;5.52;100.00;61562.19;5092296;28;20097;-72
2021/11/05 04:50:13;;;;;;;27.80;18.52;;;;;;;5.52;100.00;61562.03;5088142;28;20044;-72
2021/11/05 04:52:47;;;;;;;28.73;18.98;;;;;;;5.52;100.00;61562.19;5042334;28;20336;-72
2021/11/05 04:55:17;;;;;;;30.73;19.15;;;;;;;5.52;100.00;61561.88;5070402;28;20134;-72
2021/11/05 04:57:47;;;;;;;32.13;19.75;;;;;;;5.52;100.00;61561.72;5092666;28;20148;-72
2021/11/05 05:00:15;;;;;;;38.17;21.80;;;;;;;5.51;100.00;61561.09;5075941;28;20054;-72
2021/11/05 05:02:43;;;;;;;35.80;20.33;;;;;;;5.50;100.00;61560.38;5091454;28;20131;-72
2021/11/05 05:05:11;;;;;;;31.08;19.40;;;;;;;5.50;100.00;61560.00;5087392;28;20431;-71
2021/11/05 05:07:39;;;;;;;30.42;19.02;;;;;;;5.50;100.00;61560.31;5114371;28;20054;-72
2021/11/05 05:10:07;;;;;;;27.42;18.00;;;;;;;5.50;100.00;61560.31;5094670;28;20062;-71
2021/11/05 05:12:35;;;;;;;32.38;18.58;;;;;;;5.50;100.00;61560.31;5100399;28;20078;-71
2021/11/05 05:15:04;;;;;;;36.33;21.98;;;;;;;5.49;100.00;61559.34;5101171;28;20197;-71
2021/11/05 05:17:31;;;;;;;28.42;17.92;;;;;;;5.48;100.00;61558.53;5090417;28;20143;-71
2021/11/05 05:19:58;;;;;;;27.58;18.48;;;;;;;5.48;100.00;61557.81;5090609;28;20055;-71
2021/11/05 05:22:26;;;;;;;35.92;20.13;;;;;;;5.47;100.00;61556.78;5077590;28;20127;-71
2021/11/05 05:24:53;;;;;;;30.55;19.33;;;;;;;5.45;100.00;61555.13;5092312;28;20484;-71
2021/11/05 05:27:20;;;;;;;30.52;20.02;;;;;;;5.43;100.00;61552.94;5095909;28;20051;-71
2021/11/05 05:29:50;;;;;;;31.20;19.65;;;;;;;5.41;100.00;61551.19;5088596;28;20040;-71
2021/11/05 05:32:17;;;;;;;27.13;17.88;;;;;;;5.40;100.00;61549.53;5095080;28;20078;-71
2021/11/05 05:34:44;;;;;;;28.70;18.13;;;;;;;5.38;100.00;61547.63;5061184;28;20151;-71
2021/11/05 05:37:12;;;;;;;26.48;16.98;;;;;;;5.37;100.00;61546.00;5082910;28;20052;-72
2021/11/05 05:39:39;;;;;;;45.10;22.95;;;;;;;5.34;100.00;61543.97;5074595;28;20135;-71
2021/11/05 05:42:06;;;;;;;52.97;23.98;;;;;;;5.32;100.00;61541.53;5082742;28;20073;-71
2021/11/05 05:44:34;;;;;;;31.75;19.33;;;;;;;5.30;100.00;61539.25;5087749;28;20083;-71
2021/11/05 05:47:02;;;;;;;43.67;21.75;;;;;;;5.28;100.00;61537.19;5075604;28;20135;-72
2021/11/05 05:49:30;;;;;;;47.40;21.63;;;;;;;5.27;100.00;61535.38;5073094;28;20117;-71
2021/11/05 05:51:58;;;;;;;27.08;16.35;;;;;;;5.26;100.00;61534.47;5097669;28;20071;-71
2021/11/05 05:54:25;;;;;;;24.63;15.32;;;;;;;5.25;100.00;61534.09;5086320;28;20048;-71
2021/11/05 05:56:53;;;;;;;27.23;15.18;;;;;;;5.25;100.00;61533.81;5083136;28;20517;-71
2021/11/05 05:59:20;;;;;;;25.17;14.93;;;;;;;5.25;100.00;61533.66;5075523;28;20087;-71
2021/11/05 06:01:48;;;;;;;46.80;20.63;;;;;;;5.25;100.00;61534.09;5092011;28;20072;-72
2021/11/05 06:04:15;;;;;;;58.72;25.92;;;;;;;5.24;100.00;61533.13;5072018;28;20055;-72
2021/11/05 06:06:42;;;;;;;53.22;23.48;;;;;;;5.22;100.00;61531.38;5087895;28;20071;-72
2021/11/05 06:09:10;;;;;;;30.05;18.08;;;;;;;5.21;100.00;61530.75;5074327;28;20066;-72
2021/11/05 06:11:37;;;;;;;40.15;20.60;;;;;;;5.20;100.00;61529.56;5085329;28;20082;-72
2021/11/05 06:14:05;;;;;;;57.15;27.75;;;;;;;5.19;100.00;61528.28;5074352;28;20126;-72
2021/11/05 06:16:32;;;;;;;37.67;22.83;;;;;;;5.19;100.00;61527.75;5062042;28;20087;-72
2021/11/05 06:19:00;;;;;;;31.45;19.90;;;;;;;5.19;100.00;61528.06;5084116;28;20537;-72
2021/11/05 06:21:27;;;;;;;34.85;21.35;;;;;;;5.18;100.00;61527.81;5050404;28;20072;-72
2021/11/05 06:23:55;;;;;;;38.72;23.13;;;;;;;5.18;100.00;61527.69;5071806;28;20123;-71
2021/11/05 06:26:22;;;;;;;64.25;27.25;;;;;;;5.17;100.00;61527.03;5070284;28;20079;-72
2021/11/05 06:28:50;;;;;;;31.08;19.63;;;;;;;5.17;100.00;61526.31;5082378;28;20486;-72
2021/11/05 06:31:18;;;;;;;34.65;20.83;;;;;;;5.16;100.00;61525.66;5080362;28;20455;-72
2021/11/05 06:33:45;;;;;;;28.92;19.23;;;;;;;5.16;100.00;61525.28;5081536;28;20542;-72
2021/11/05 06:36:13;;;;;;;28.73;18.17;;;;;;;5.15;100.00;61523.97;5065221;28;20044;-72
2021/11/05 06:38:41;;;;;;;36.63;20.77;;;;;;;5.13;100.00;61522.78;5078386;28;20131;-71
2021/11/05 06:41:11;;;;;;;30.35;17.92;;;;;;;5.13;100.00;61522.13;5072399;28;20416;-71
2021/11/05 06:43:39;;;;;;;31.33;16.77;;;;;;;5.12;100.00;61521.59;5072486;28;20056;-72
2021/11/05 06:46:06;;;;;;;22.13;14.95;;;;;;;5.11;100.00;61520.22;5086323;28;20078;-72
2021/11/05 06:48:34;;;;;;;29.88;16.63;;;;;;;5.10;100.00;61519.44;5070013;28;20206;-72
2021/11/05 06:51:02;;;;;;;34.90;19.30;;;;;;;5.09;100.00;61518.81;5088322;28;20127;-72
2021/11/05 06:53:29;;;;;;;33.72;20.17;;;;;;;5.08;100.00;61517.53;5078666;28;20511;-72
2021/11/05 06:55:56;;;;;;;63.20;28.17;;;;;;;5.07;100.00;61516.03;5083465;28;20505;-72
2021/11/05 06:58:24;;;;;;;38.97;20.77;;;;;;;5.05;100.00;61514.22;5071283;28;20428;-72
2021/11/05 07:00:51;;;;;;;50.13;25.58;;;;;;;5.05;100.00;61513.25;5053280;28;20108;-72
2021/11/05 07:03:19;;;;;;;47.72;23.65;;;;;;;5.03;100.00;61511.78;5088572;28;20131;-72
2021/11/05 07:05:46;;;;;;;44.60;22.20;;;;;;;5.02;100.00;61510.88;5083505;28;20052;-72
2021/11/05 07:08:13;;;;;;;63.90;25.05;;;;;;;5.02;100.00;61510.88;5070854;28;20111;-72
2021/11/05 07:10:41;;;;;;;79.57;27.73;;;;;;;5.02;100.00;61510.91;5090178;28;20048;-71
2021/11/05 07:13:08;;;;;;;36.30;19.83;;;;;;;5.03;100.00;61512.59;5087217;28;20079;-71
2021/11/05 07:15:35;;;;;;;34.00;18.35;;;;;;;5.06;100.00;61515.16;5073836;28;20040;-71
2021/11/05 07:18:03;;;;;;;28.00;17.27;;;;;;;5.09;100.00;61518.84;5090478;28;20131;-71
2021/11/05 07:20:33;;;;;;;30.38;18.27;;;;;;;5.12;100.00;61521.91;5092277;28;20048;-71
2021/11/05 07:23:01;;;;;;;30.48;18.50;;;;;;;5.16;100.00;61526.00;5073163;28;20050;-72
2021/11/05 07:25:28;;;;;;;26.98;16.75;;;;;;;5.20;100.00;61530.13;5089771;28;20600;-72
2021/11/05 07:27:55;;;;;;;27.27;18.40;;;;;;;5.24;100.00;61534.34;5092124;28;20171;-72
2021/11/05 07:30:23;;;;;;;40.70;19.98;;;;;;;5.29;100.00;61538.47;5073626;28;20140;-72
2021/11/05 07:32:51;;;;;;;36.85;20.50;;;;;;;5.32;100.00;61541.59;5074372;28;20056;-72
2021/11/05 07:35:21;;;;;;;32.63;19.38;;;;;;;5.36;100.00;61545.63;5089092;28;20048;-72
2021/11/05 07:37:49;;;;;;;32.45;18.15;;;;;;;5.41;100.00;61550.91;5092454;28;20138;-72
2021/11/05 07:40:17;;;;;;;27.50;18.05;;;;;;;5.44;100.00;61554.28;5092494;28;20135;-72
2021/11/05 07:42:46;;;;;;;31.45;16.52;;;;;;;5.48;100.00;61558.09;5071209;28;20146;-72
2021/11/05 07:45:15;;;;;;;24.33;16.25;;;;;;;5.52;99.82;61561.56;5075140;28;20130;-72
2021/11/05 07:47:44;;;;;;;28.52;18.88;;;;;;;5.56;99.16;61566.25;5081799;28;20076;-73
2021/11/05 07:50:15;;;;;;;30.35;19.45;;;;;;;5.59;98.58;61569.75;5070632;28;20116;-74
2021/11/05 07:52:43;;;;;;;26.13;16.70;;;;;;;5.62;98.62;61572.63;5074769;28;20126;-73
2021/11/05 07:55:10;;;;;;;32.67;19.55;;;;;;;5.65;99.44;61575.47;5071376;28;20051;-73
2021/11/05 07:57:38;;;;;;;28.85;18.52;;;;;;;5.68;98.56;61578.59;5067746;28;20067;-73
2021/11/05 08:00:13;;;;;;;25.33;17.15;;;;;;;5.70;98.91;61580.78;5092639;28;20048;-73
2021/11/05 08:02:41;;;;;;;25.48;17.00;;;;;;;5.73;99.11;61583.91;5040172;28;20048;-72
2021/11/05 08:05:12;;;;;;;32.08;21.48;;;;;;;5.74;99.15;61585.38;5090481;28;20047;-72
2021/11/05 08:07:41;;;;;;;28.27;17.63;;;;;;;5.77;99.38;61588.50;5075359;28;20055;-74
2021/11/05 08:10:16;;;;;;;24.48;16.88;;;;;;;5.81;98.79;61592.13;5055353;28;20448;-71
2021/11/05 08:12:43;;;;;;;34.47;19.83;;;;;;;5.85;98.24;61596.34;5072562;28;20067;-72
2021/11/05 08:15:11;;;;;;;25.60;16.73;;;;;;;5.87;98.16;61598.72;5099551;28;20051;-72
2021/11/05 08:17:38;;;;;;;30.13;18.50;;;;;;;5.89;98.04;61599.94;5075698;28;20060;-72
2021/11/05 08:20:06;;;;;;;39.50;23.60;;;;;;;5.89;99.01;61600.47;5071731;28;20072;-72
2021/11/05 08:22:34;;;;;;;38.28;21.90;;;;;;;5.91;99.19;61602.00;5072558;28;20040;-72
2021/11/05 08:25:01;;;;;;;26.00;17.00;;;;;;;5.94;98.88;61606.25;5084184;28;20052;-72
2021/11/05 08:27:29;;;;;;;28.17;19.85;;;;;;;5.97;97.85;61609.09;5071911;28;20489;-72
2021/11/05 08:29:56;;;;;;;23.85;16.60;;;;;;;6.01;98.00;61613.19;5090454;28;20055;-71
2021/11/05 08:32:23;;;;;;;29.55;18.40;;;;;;;6.06;97.17;61618.59;5090641;28;20058;-70
2021/11/05 08:34:51;;;;;;;27.77;17.30;;;;;;;6.13;96.32;61625.22;5087024;28;20135;-70
2021/11/05 08:37:18;;;;;;;24.70;16.60;;;;;;;6.21;95.32;61633.56;5091333;28;20052;-71
2021/11/05 08:39:45;;;;;;;21.42;15.70;;;;;;;6.28;95.17;61641.69;5069589;28;20258;-74
2021/11/05 08:42:13;;;;;;;23.35;16.23;;;;;;;6.36;94.77;61649.69;5091578;28;20131;-72
2021/11/05 08:44:40;;;;;;;19.88;14.10;;;;;;;6.44;93.13;61658.25;5089353;28;20139;-73
2021/11/05 08:47:07;;;;;;;24.02;16.13;;;;;;;6.51;92.02;61665.63;5064118;28;20514;-71
2021/11/05 08:49:35;;;;;;;23.77;15.80;;;;;;;6.58;92.18;61672.59;5059649;28;20175;-73
2021/11/05 08:52:03;;;;;;;23.63;14.50;;;;;;;6.65;92.47;61680.34;5070403;28;20086;-70
2021/11/05 08:54:31;;;;;;;23.10;15.05;;;;;;;6.70;91.67;61685.63;5067491;28;20059;-70
2021/11/05 08:57:01;;;;;;;16.67;12.63;;;;;;;6.75;91.80;61690.66;5091633;28;20048;-73
2021/11/05 08:59:28;;;;;;;15.60;11.15;;;;;;;6.80;90.18;61696.25;5073163;28;20072;-73
2021/11/05 09:01:56;;;;;;;12.23;9.27;;;;;;;6.86;89.51;61702.31;5072845;28;20123;-72
2021/11/05 09:04:23;;;;;;;15.00;10.93;;;;;;;6.92;88.84;61708.03;5075017;28;20055;-73
2021/11/05 09:06:51;;;;;;;18.45;11.68;;;;;;;6.98;87.49;61714.44;5093947;28;20132;-73
2021/11/05 09:09:20;;;;;;;15.90;11.20;;;;;;;7.05;87.55;61722.34;5071182;28;20128;-73
2021/11/05 09:11:54;;;;;;;13.00;9.43;;;;;;;7.11;88.50;61728.38;5091251;28;20079;-73
2021/11/05 09:14:21;;;;;;;13.43;9.82;;;;;;;7.16;86.10;61732.53;5088126;28;20127;-73
2021/11/05 09:17:08;;;;;;;15.50;10.90;;;;;;;7.18;87.45;61735.16;5074974;28;20162;-73
2021/11/05 09:19:35;;;;;;;18.52;10.32;;;;;;;7.19;87.83;61736.53;5073181;28;20123;-73
2021/11/05 09:22:03;;;;;;;13.15;9.38;;;;;;;7.21;85.91;61738.72;5088462;28;20044;-72
2021/11/05 09:24:32;;;;;;;16.60;9.85;;;;;;;7.22;86.81;61739.31;5089076;28;20446;-73
2021/11/05 09:27:00;;;;;;;14.35;10.20;;;;;;;7.25;86.38;61742.00;5072755;28;20060;-73
2021/11/05 09:29:27;;;;;;;14.52;10.00;;;;;;;7.27;87.31;61743.56;5089232;28;20079;-73
2021/11/05 09:31:55;;;;;;;12.32;9.10;;;;;;;7.28;85.41;61743.81;5090211;28;20414;-72
2021/11/05 09:34:22;;;;;;;18.45;13.07;;;;;;;7.28;86.44;61744.50;5063974;28;20087;-72
2021/11/05 09:36:50;;;;;;;12.13;8.65;;;;;;;7.27;85.32;61744.16;5092696;28;20044;-73
2021/11/05 09:39:18;;;;;;;12.02;9.35;;;;;;;7.26;85.17;61743.13;5087905;28;20142;-72
2021/11/05 09:41:47;;;;;;;11.90;8.20;;;;;;;7.26;85.70;61743.56;5066462;28;20130;-72
2021/11/05 09:44:14;;;;;;;14.73;8.55;;;;;;;7.26;85.05;61742.88;5069109;28;20121;-71
2021/11/05 09:46:42;;;;;;;10.57;7.15;;;;;;;7.27;86.59;61743.50;5069761;28;20146;-72
2021/11/05 09:49:09;;;;;;;10.88;8.40;;;;;;;7.28;85.79;61744.88;5069598;28;20057;-71
2021/11/05 09:51:37;;;;;;;12.32;8.60;;;;;;;7.29;85.52;61746.66;5091279;28;20043;-71
2021/11/05 09:54:07;;;;;;;11.30;8.50;;;;;;;7.30;85.58;61747.06;5071136;28;20048;-74
2021/11/05 09:56:34;;;;;;;14.50;8.80;;;;;;;7.30;84.71;61747.94;5068997;28;20047;-72
2021/11/05 09:59:02;;;;;;;10.43;7.57;;;;;;;7.31;85.49;61748.31;5071395;28;20101;-71
2021/11/05 10:01:30;;;;;;;12.05;8.50;;;;;;;7.31;84.23;61748.59;5064090;28;20079;-74
2021/11/05 10:03:57;;;;;;;12.65;8.55;;;;;;;7.31;84.68;61748.69;5085560;28;20451;-72
2021/11/05 10:06:24;;;;;;;17.05;10.77;;;;;;;7.32;84.87;61749.22;5083224;28;20076;-74
2021/11/05 10:08:53;;;;;;;15.13;9.57;;;;;;;7.34;85.27;61751.53;5088784;28;20071;-71
2021/11/05 10:11:23;;;;;;;12.50;9.18;;;;;;;7.37;85.76;61754.50;5059955;28;20520;-71
2021/11/05 10:13:51;;;;;;;15.13;10.25;;;;;;;7.41;85.35;61758.09;5071586;28;20044;-72
2021/11/05 10:16:19;;;;;;;15.38;9.90;;;;;;;7.47;82.48;61763.78;5063636;28;20139;-71
2021/11/05 10:19:18;;;;;;;13.68;9.68;;;;;;;7.50;82.74;61767.16;5069431;28;20071;-71
2021/11/05 10:21:46;;;;;;;12.18;8.57;;;;;;;7.54;83.09;61771.63;5055045;28;20052;-71
2021/11/05 10:24:19;;;;;;;11.93;7.90;;;;;;;7.58;82.22;61775.72;5087244;28;20112;-71
2021/11/05 10:26:47;;;;;;;11.07;7.88;;;;;;;7.62;82.38;61780.00;5085616;28;20126;-71
2021/11/05 10:29:33;;;;;;;11.40;7.45;;;;;;;7.65;81.09;61783.69;5078198;28;20082;-71
2021/11/05 10:32:08;;;;;;;12.40;8.25;;;;;;;7.68;81.72;61786.34;5087959;28;20072;-71
2021/11/05 10:34:53;;;;;;;11.65;8.70;;;;;;;7.72;81.43;61790.56;5055518;28;20040;-71
2021/11/05 10:37:32;;;;;;;13.38;9.00;;;;;;;7.76;80.19;61794.19;5063003;28;20135;-71
2021/11/05 10:40:01;;;;;;;9.88;7.38;;;;;;;7.81;80.73;61799.09;5063542;28;20459;-70
2021/11/05 10:42:46;;;;;;;13.15;8.55;;;;;;;7.85;80.31;61803.47;5070527;28;20051;-71
2021/11/05 10:45:18;;;;;;;14.68;9.27;;;;;;;7.90;79.84;61808.81;5063688;28;20080;-71
2021/11/05 10:47:54;;;;;;;13.02;9.05;;;;;;;7.93;80.08;61812.03;5088306;28;20080;-71
2021/11/05 10:50:41;;;;;;;10.07;7.47;;;;;;;7.98;79.17;61816.63;5089919;28;20505;-71
2021/11/05 10:53:20;;;;;;;11.85;8.43;;;;;;;8.04;78.08;61823.38;5088728;28;20334;-71
2021/11/05 10:55:57;;;;;;;9.15;6.68;;;;;;;8.11;77.75;61830.06;5078746;28;20127;-71
2021/11/05 10:58:26;;;;;;;13.68;7.82;;;;;;;8.14;76.91;61833.94;5088459;28;20572;-71
2021/11/05 11:01:08;;;;;;;10.40;6.53;;;;;;;8.19;78.34;61839.38;5086158;28;20075;-70
2021/11/05 11:03:41;;;;;;;10.15;7.40;;;;;;;8.25;77.89;61844.78;5081405;28;20474;-70
2021/11/05 11:06:12;;;;;;;11.77;6.57;;;;;;;8.30;76.87;61850.31;5084656;28;20052;-71
2021/11/05 11:08:47;;;;;;;10.43;7.15;;;;;;;8.36;77.58;61855.88;5085235;28;20521;-71
2021/11/05 11:11:32;;;;;;;8.30;5.55;;;;;;;8.42;75.74;61861.88;5079427;28;20079;-72
2021/11/05 11:14:02;;;;;;;10.77;6.88;;;;;;;8.46;76.28;61867.06;5101043;28;20044;-71
2021/11/05 11:16:37;;;;;;;11.07;7.45;;;;;;;8.51;76.28;61872.09;5068943;28;20107;-71
2021/11/05 11:19:14;;;;;;;8.38;6.15;;;;;;;8.58;77.07;61878.91;5084836;28;20078;-72
2021/11/05 11:21:52;;;;;;;8.88;6.05;;;;;;;8.67;75.76;61887.81;5090647;28;20071;-72
2021/11/05 11:24:29;;;;;;;9.98;6.43;;;;;;;8.73;74.80;61894.59;5090042;28;20048;-72
2021/11/05 11:26:58;;;;;;;9.88;6.85;;;;;;;8.79;74.88;61900.75;5091061;28;20124;-72
2021/11/05 11:29:26;;;;;;;12.40;6.60;;;;;;;8.84;74.05;61905.34;5073372;28;20075;-72